sensor_id;sensor_type;location;lat;lon;timestamp;P1;durP1;ratioP1;P2;durP2;ratioP2
19645;SDS011;9971;52.446;13.452;2024-01-06T00:01:10;0.90;;;0.90;;
19645;SDS011;9971;52.446;13.452;2024-01-06T00:06:12;1.37;;;1.17;;
19645;SDS011;9971;52.446;13.452;2024-01-06T00:11:13;0.70;;;0.70;;
19645;SDS011;9971;52.446;13.452;2024-01-06T00:16:17;3.52;;;3.12;;
19645;SDS011;9971;52.446;13.452;2024-01-06T00:21:18;0.80;;;0.80;;
19645;SDS011;9971;52.446;13.452;2024-01-06T00:26:21;1.50;;;1.40;;
19645;SDS011;9971;52.446;13.452;2024-01-06T00:31:23;0.77;;;0.77;;
19645;SDS011;9971;52.446;13.452;2024-01-06T00:36:26;1.98;;;1.80;;
19645;SDS011;9971;52.446;13.452;2024-01-06T00:41:28;0.93;;;0.90;;
19645;SDS011;9971;52.446;13.452;2024-01-06T00:46:30;2.45;;;2.17;;
19645;SDS011;9971;52.446;13.452;2024-01-06T00:51:33;0.82;;;0.82;;
19645;SDS011;9971;52.446;13.452;2024-01-06T00:56:35;2.20;;;2.00;;
19645;SDS011;9971;52.446;13.452;2024-01-06T01:01:38;1.60;;;1.50;;
19645;SDS011;9971;52.446;13.452;2024-01-06T01:06:40;0.60;;;0.60;;
19645;SDS011;9971;52.446;13.452;2024-01-06T01:11:43;1.55;;;1.45;;
19645;SDS011;9971;52.446;13.452;2024-01-06T01:16:45;1.57;;;1.47;;
19645;SDS011;9971;52.446;13.452;2024-01-06T01:21:47;1.15;;;1.05;;
19645;SDS011;9971;52.446;13.452;2024-01-06T01:26:50;2.77;;;2.37;;
19645;SDS011;9971;52.446;13.452;2024-01-06T01:31:53;0.80;;;0.75;;
19645;SDS011;9971;52.446;13.452;2024-01-06T01:36:56;0.95;;;0.95;;
19645;SDS011;9971;52.446;13.452;2024-01-06T01:41:58;0.80;;;0.80;;
19645;SDS011;9971;52.446;13.452;2024-01-06T01:47:02;1.22;;;1.12;;
19645;SDS011;9971;52.446;13.452;2024-01-06T01:52:03;0.93;;;0.90;;
19645;SDS011;9971;52.446;13.452;2024-01-06T01:57:06;1.00;;;1.00;;
19645;SDS011;9971;52.446;13.452;2024-01-06T02:02:08;1.60;;;1.50;;
19645;SDS011;9971;52.446;13.452;2024-01-06T02:07:09;1.10;;;1.00;;
19645;SDS011;9971;52.446;13.452;2024-01-06T02:12:12;1.65;;;1.55;;
19645;SDS011;9971;52.446;13.452;2024-01-06T02:17:15;1.40;;;1.30;;
19645;SDS011;9971;52.446;13.452;2024-01-06T02:22:17;1.47;;;1.37;;
19645;SDS011;9971;52.446;13.452;2024-01-06T02:27:19;0.70;;;0.70;;
19645;SDS011;9971;52.446;13.452;2024-01-06T02:32:22;1.57;;;1.47;;
19645;SDS011;9971;52.446;13.452;2024-01-06T02:37:24;2.62;;;2.25;;
19645;SDS011;9971;52.446;13.452;2024-01-06T02:42:27;0.90;;;0.90;;
19645;SDS011;9971;52.446;13.452;2024-01-06T02:47:29;5.30;;;4.80;;
19645;SDS011;9971;52.446;13.452;2024-01-06T02:52:32;4.03;;;3.62;;
19645;SDS011;9971;52.446;13.452;2024-01-06T02:57:34;1.00;;;1.00;;
19645;SDS011;9971;52.446;13.452;2024-01-06T03:02:36;0.70;;;0.70;;
19645;SDS011;9971;52.446;13.452;2024-01-06T03:07:39;1.82;;;1.52;;
19645;SDS011;9971;52.446;13.452;2024-01-06T03:12:41;1.90;;;1.72;;
19645;SDS011;9971;52.446;13.452;2024-01-06T03:17:44;0.80;;;0.80;;
19645;SDS011;9971;52.446;13.452;2024-01-06T03:22:47;1.02;;;1.02;;
19645;SDS011;9971;52.446;13.452;2024-01-06T03:27:49;1.43;;;1.33;;
19645;SDS011;9971;52.446;13.452;2024-01-06T03:32:51;1.52;;;1.40;;
19645;SDS011;9971;52.446;13.452;2024-01-06T03:37:54;3.47;;;3.17;;
19645;SDS011;9971;52.446;13.452;2024-01-06T03:42:56;0.90;;;0.90;;
19645;SDS011;9971;52.446;13.452;2024-01-06T03:47:59;1.85;;;1.70;;
19645;SDS011;9971;52.446;13.452;2024-01-06T03:53:01;0.68;;;0.68;;
19645;SDS011;9971;52.446;13.452;2024-01-06T03:58:04;0.98;;;0.98;;
19645;SDS011;9971;52.446;13.452;2024-01-06T04:03:06;1.55;;;1.45;;
19645;SDS011;9971;52.446;13.452;2024-01-06T04:08:09;3.62;;;2.70;;
19645;SDS011;9971;52.446;13.452;2024-01-06T04:13:11;1.50;;;1.40;;
19645;SDS011;9971;52.446;13.452;2024-01-06T04:18:13;1.40;;;1.30;;
19645;SDS011;9971;52.446;13.452;2024-01-06T04:23:16;1.82;;;1.72;;
19645;SDS011;9971;52.446;13.452;2024-01-06T04:28:18;3.50;;;3.10;;
19645;SDS011;9971;52.446;13.452;2024-01-06T04:33:21;3.10;;;2.80;;
19645;SDS011;9971;52.446;13.452;2024-01-06T04:38:23;1.10;;;1.10;;
19645;SDS011;9971;52.446;13.452;2024-01-06T04:43:25;1.30;;;1.20;;
19645;SDS011;9971;52.446;13.452;2024-01-06T04:48:28;0.68;;;0.68;;
19645;SDS011;9971;52.446;13.452;2024-01-06T04:53:31;4.12;;;3.37;;
19645;SDS011;9971;52.446;13.452;2024-01-06T04:58:33;6.50;;;5.80;;
19645;SDS011;9971;52.446;13.452;2024-01-06T05:03:36;8.48;;;6.67;;
19645;SDS011;9971;52.446;13.452;2024-01-06T05:08:38;4.83;;;3.83;;
19645;SDS011;9971;52.446;13.452;2024-01-06T05:13:40;3.10;;;2.67;;
19645;SDS011;9971;52.446;13.452;2024-01-06T05:18:43;2.50;;;2.20;;
19645;SDS011;9971;52.446;13.452;2024-01-06T05:23:45;1.40;;;1.20;;
19645;SDS011;9971;52.446;13.452;2024-01-06T05:28:48;0.97;;;0.97;;
19645;SDS011;9971;52.446;13.452;2024-01-06T05:33:50;1.00;;;1.00;;
19645;SDS011;9971;52.446;13.452;2024-01-06T05:38:52;1.62;;;1.50;;
19645;SDS011;9971;52.446;13.452;2024-01-06T05:43:55;2.62;;;2.30;;
19645;SDS011;9971;52.446;13.452;2024-01-06T05:48:57;1.90;;;1.80;;
19645;SDS011;9971;52.446;13.452;2024-01-06T05:53:59;0.98;;;0.98;;
19645;SDS011;9971;52.446;13.452;2024-01-06T05:59:02;1.20;;;1.10;;
19645;SDS011;9971;52.446;13.452;2024-01-06T06:04:04;1.12;;;1.02;;
19645;SDS011;9971;52.446;13.452;2024-01-06T06:09:07;1.30;;;1.20;;
19645;SDS011;9971;52.446;13.452;2024-01-06T06:14:09;1.17;;;1.07;;
19645;SDS011;9971;52.446;13.452;2024-01-06T06:19:11;0.70;;;0.70;;
19645;SDS011;9971;52.446;13.452;2024-01-06T06:24:14;0.78;;;0.78;;
19645;SDS011;9971;52.446;13.452;2024-01-06T06:29:16;1.05;;;1.00;;
19645;SDS011;9971;52.446;13.452;2024-01-06T06:34:19;0.78;;;0.78;;
19645;SDS011;9971;52.446;13.452;2024-01-06T06:39:22;1.20;;;1.10;;
19645;SDS011;9971;52.446;13.452;2024-01-06T06:44:24;0.70;;;0.70;;
19645;SDS011;9971;52.446;13.452;2024-01-06T06:49:27;1.00;;;1.00;;
19645;SDS011;9971;52.446;13.452;2024-01-06T06:54:30;0.80;;;0.80;;
19645;SDS011;9971;52.446;13.452;2024-01-06T06:59:32;1.15;;;1.00;;
19645;SDS011;9971;52.446;13.452;2024-01-06T07:04:35;1.30;;;1.20;;
19645;SDS011;9971;52.446;13.452;2024-01-06T07:09:37;0.80;;;0.80;;
19645;SDS011;9971;52.446;13.452;2024-01-06T07:14:40;1.20;;;1.10;;
19645;SDS011;9971;52.446;13.452;2024-01-06T07:19:42;1.12;;;1.05;;
19645;SDS011;9971;52.446;13.452;2024-01-06T07:24:45;1.05;;;1.00;;
19645;SDS011;9971;52.446;13.452;2024-01-06T07:29:47;0.80;;;0.80;;
19645;SDS011;9971;52.446;13.452;2024-01-06T07:34:50;1.00;;;1.00;;
19645;SDS011;9971;52.446;13.452;2024-01-06T07:39:52;1.13;;;1.10;;
19645;SDS011;9971;52.446;13.452;2024-01-06T07:44:54;0.82;;;0.82;;
19645;SDS011;9971;52.446;13.452;2024-01-06T07:49:57;0.80;;;0.80;;
19645;SDS011;9971;52.446;13.452;2024-01-06T07:54:59;1.37;;;1.12;;
19645;SDS011;9971;52.446;13.452;2024-01-06T08:00:02;1.07;;;1.05;;
19645;SDS011;9971;52.446;13.452;2024-01-06T08:05:04;1.47;;;1.35;;
19645;SDS011;9971;52.446;13.452;2024-01-06T08:10:07;0.60;;;0.60;;
19645;SDS011;9971;52.446;13.452;2024-01-06T08:15:10;1.90;;;1.77;;
19645;SDS011;9971;52.446;13.452;2024-01-06T08:20:12;0.80;;;0.80;;
19645;SDS011;9971;52.446;13.452;2024-01-06T08:25:14;1.40;;;1.30;;
19645;SDS011;9971;52.446;13.452;2024-01-06T08:30:17;1.30;;;1.20;;
19645;SDS011;9971;52.446;13.452;2024-01-06T08:35:19;0.90;;;0.90;;
19645;SDS011;9971;52.446;13.452;2024-01-06T08:40:22;1.17;;;0.95;;
19645;SDS011;9971;52.446;13.452;2024-01-06T08:45:24;0.80;;;0.80;;
19645;SDS011;9971;52.446;13.452;2024-01-06T08:50:27;1.30;;;1.20;;
19645;SDS011;9971;52.446;13.452;2024-01-06T08:55:29;0.95;;;0.95;;
19645;SDS011;9971;52.446;13.452;2024-01-06T09:00:32;0.78;;;0.78;;
19645;SDS011;9971;52.446;13.452;2024-01-06T09:05:34;0.70;;;0.70;;
19645;SDS011;9971;52.446;13.452;2024-01-06T09:10:37;0.95;;;0.95;;
19645;SDS011;9971;52.446;13.452;2024-01-06T09:15:39;0.65;;;0.65;;
19645;SDS011;9971;52.446;13.452;2024-01-06T09:20:42;0.98;;;0.98;;
19645;SDS011;9971;52.446;13.452;2024-01-06T09:25:44;0.95;;;0.95;;
19645;SDS011;9971;52.446;13.452;2024-01-06T09:30:47;1.92;;;1.72;;
19645;SDS011;9971;52.446;13.452;2024-01-06T09:35:49;0.80;;;0.80;;
19645;SDS011;9971;52.446;13.452;2024-01-06T09:40:52;0.90;;;0.88;;
19645;SDS011;9971;52.446;13.452;2024-01-06T09:46:27;1.00;;;1.00;;
19645;SDS011;9971;52.446;13.452;2024-01-06T09:51:12;0.90;;;0.90;;
19645;SDS011;9971;52.446;13.452;2024-01-06T09:56:15;0.90;;;0.90;;
19645;SDS011;9971;52.446;13.452;2024-01-06T10:01:17;1.33;;;1.23;;
19645;SDS011;9971;52.446;13.452;2024-01-06T10:06:19;1.25;;;1.15;;
19645;SDS011;9971;52.446;13.452;2024-01-06T10:11:22;1.02;;;0.95;;
19645;SDS011;9971;52.446;13.452;2024-01-06T10:16:24;0.70;;;0.70;;
19645;SDS011;9971;52.446;13.452;2024-01-06T10:21:26;0.75;;;0.75;;
19645;SDS011;9971;52.446;13.452;2024-01-06T10:26:28;3.17;;;2.87;;
19645;SDS011;9971;52.446;13.452;2024-01-06T10:31:31;0.90;;;0.90;;
19645;SDS011;9971;52.446;13.452;2024-01-06T10:36:33;0.80;;;0.80;;
19645;SDS011;9971;52.446;13.452;2024-01-06T10:41:35;1.00;;;1.00;;
19645;SDS011;9971;52.446;13.452;2024-01-06T10:46:38;1.10;;;1.10;;
19645;SDS011;9971;52.446;13.452;2024-01-06T10:51:39;0.80;;;0.80;;
19645;SDS011;9971;52.446;13.452;2024-01-06T10:56:42;0.98;;;0.98;;
19645;SDS011;9971;52.446;13.452;2024-01-06T11:01:43;0.90;;;0.90;;
19645;SDS011;9971;52.446;13.452;2024-01-06T11:06:45;0.80;;;0.80;;
19645;SDS011;9971;52.446;13.452;2024-01-06T11:11:47;1.10;;;1.00;;
19645;SDS011;9971;52.446;13.452;2024-01-06T11:16:50;1.10;;;1.10;;
19645;SDS011;9971;52.446;13.452;2024-01-06T11:21:51;1.10;;;1.00;;
19645;SDS011;9971;52.446;13.452;2024-01-06T11:26:55;1.30;;;1.20;;
19645;SDS011;9971;52.446;13.452;2024-01-06T11:37:09;1.10;;;1.10;;
19645;SDS011;9971;52.446;13.452;2024-01-06T11:42:14;1.33;;;1.23;;
19645;SDS011;9971;52.446;13.452;2024-01-06T11:47:14;0.90;;;0.90;;
19645;SDS011;9971;52.446;13.452;2024-01-06T11:52:15;0.97;;;0.97;;
19645;SDS011;9971;52.446;13.452;2024-01-06T11:57:18;1.32;;;1.20;;
19645;SDS011;9971;52.446;13.452;2024-01-06T12:02:20;1.27;;;1.17;;
19645;SDS011;9971;52.446;13.452;2024-01-06T12:07:22;1.40;;;1.07;;
19645;SDS011;9971;52.446;13.452;2024-01-06T12:12:25;0.75;;;0.75;;
19645;SDS011;9971;52.446;13.452;2024-01-06T12:17:28;1.33;;;1.13;;
19645;SDS011;9971;52.446;13.452;2024-01-06T12:22:30;1.00;;;1.00;;
19645;SDS011;9971;52.446;13.452;2024-01-06T12:27:32;1.40;;;1.25;;
19645;SDS011;9971;52.446;13.452;2024-01-06T12:32:34;1.00;;;1.00;;
19645;SDS011;9971;52.446;13.452;2024-01-06T12:37:36;1.40;;;1.30;;
19645;SDS011;9971;52.446;13.452;2024-01-06T12:42:39;0.90;;;0.90;;
19645;SDS011;9971;52.446;13.452;2024-01-06T12:47:41;1.02;;;1.00;;
19645;SDS011;9971;52.446;13.452;2024-01-06T12:52:43;1.15;;;1.12;;
19645;SDS011;9971;52.446;13.452;2024-01-06T12:57:45;1.15;;;1.05;;
19645;SDS011;9971;52.446;13.452;2024-01-06T13:02:48;18.77;;;16.93;;
19645;SDS011;9971;52.446;13.452;2024-01-06T13:07:50;20.75;;;18.15;;
19645;SDS011;9971;52.446;13.452;2024-01-06T13:12:52;19.85;;;16.65;;
19645;SDS011;9971;52.446;13.452;2024-01-06T13:17:55;23.65;;;17.48;;
19645;SDS011;9971;52.446;13.452;2024-01-06T13:22:58;19.32;;;16.52;;
19645;SDS011;9971;52.446;13.452;2024-01-06T13:28:01;20.70;;;17.60;;
19645;SDS011;9971;52.446;13.452;2024-01-06T13:33:05;18.62;;;15.98;;
19645;SDS011;9971;52.446;13.452;2024-01-06T13:38:07;20.02;;;16.85;;
19645;SDS011;9971;52.446;13.452;2024-01-06T13:43:09;18.67;;;16.27;;
19645;SDS011;9971;52.446;13.452;2024-01-06T13:48:11;20.23;;;15.53;;
19645;SDS011;9971;52.446;13.452;2024-01-06T13:53:14;17.57;;;15.53;;
19645;SDS011;9971;52.446;13.452;2024-01-06T13:58:16;22.05;;;17.48;;
19645;SDS011;9971;52.446;13.452;2024-01-06T14:03:19;12.65;;;9.95;;
19645;SDS011;9971;52.446;13.452;2024-01-06T14:08:21;12.57;;;9.40;;
19645;SDS011;9971;52.446;13.452;2024-01-06T14:13:24;8.58;;;5.60;;
19645;SDS011;9971;52.446;13.452;2024-01-06T14:18:26;0.80;;;0.80;;
19645;SDS011;9971;52.446;13.452;2024-01-06T14:23:28;1.00;;;0.90;;
19645;SDS011;9971;52.446;13.452;2024-01-06T14:28:31;1.25;;;1.15;;
19645;SDS011;9971;52.446;13.452;2024-01-06T14:33:33;0.97;;;0.97;;
19645;SDS011;9971;52.446;13.452;2024-01-06T14:38:35;0.70;;;0.70;;
19645;SDS011;9971;52.446;13.452;2024-01-06T14:43:38;0.72;;;0.72;;
19645;SDS011;9971;52.446;13.452;2024-01-06T14:48:40;0.57;;;0.57;;
19645;SDS011;9971;52.446;13.452;2024-01-06T14:53:42;0.82;;;0.80;;
19645;SDS011;9971;52.446;13.452;2024-01-06T14:58:45;1.00;;;1.00;;
19645;SDS011;9971;52.446;13.452;2024-01-06T15:03:47;1.17;;;1.07;;
19645;SDS011;9971;52.446;13.452;2024-01-06T15:08:50;0.80;;;0.80;;
19645;SDS011;9971;52.446;13.452;2024-01-06T15:13:52;0.82;;;0.82;;
19645;SDS011;9971;52.446;13.452;2024-01-06T15:18:55;0.82;;;0.82;;
19645;SDS011;9971;52.446;13.452;2024-01-06T15:23:57;0.93;;;0.90;;
19645;SDS011;9971;52.446;13.452;2024-01-06T15:28:59;1.17;;;0.90;;
19645;SDS011;9971;52.446;13.452;2024-01-06T15:34:02;0.90;;;0.90;;
19645;SDS011;9971;52.446;13.452;2024-01-06T15:39:04;0.80;;;0.80;;
19645;SDS011;9971;52.446;13.452;2024-01-06T15:44:06;1.40;;;1.30;;
19645;SDS011;9971;52.446;13.452;2024-01-06T15:49:09;0.80;;;0.80;;
19645;SDS011;9971;52.446;13.452;2024-01-06T15:54:11;0.82;;;0.80;;
19645;SDS011;9971;52.446;13.452;2024-01-06T15:59:14;0.72;;;0.72;;
19645;SDS011;9971;52.446;13.452;2024-01-06T16:04:16;1.15;;;0.85;;
19645;SDS011;9971;52.446;13.452;2024-01-06T16:09:19;1.20;;;1.10;;
19645;SDS011;9971;52.446;13.452;2024-01-06T16:14:21;0.98;;;0.98;;
19645;SDS011;9971;52.446;13.452;2024-01-06T16:19:23;1.03;;;0.90;;
19645;SDS011;9971;52.446;13.452;2024-01-06T16:24:26;0.80;;;0.80;;
19645;SDS011;9971;52.446;13.452;2024-01-06T16:29:28;0.80;;;0.80;;
19645;SDS011;9971;52.446;13.452;2024-01-06T16:34:31;1.00;;;1.00;;
19645;SDS011;9971;52.446;13.452;2024-01-06T16:39:33;0.62;;;0.62;;
19645;SDS011;9971;52.446;13.452;2024-01-06T16:44:35;1.07;;;1.05;;
19645;SDS011;9971;52.446;13.452;2024-01-06T16:49:38;0.70;;;0.70;;
19645;SDS011;9971;52.446;13.452;2024-01-06T16:54:40;0.70;;;0.70;;
19645;SDS011;9971;52.446;13.452;2024-01-06T16:59:43;1.15;;;1.05;;
19645;SDS011;9971;52.446;13.452;2024-01-06T17:04:45;0.80;;;0.80;;
19645;SDS011;9971;52.446;13.452;2024-01-06T17:09:48;1.50;;;1.40;;
19645;SDS011;9971;52.446;13.452;2024-01-06T17:14:50;0.62;;;0.62;;
19645;SDS011;9971;52.446;13.452;2024-01-06T17:19:52;0.70;;;0.70;;
19645;SDS011;9971;52.446;13.452;2024-01-06T17:24:55;1.30;;;1.20;;
19645;SDS011;9971;52.446;13.452;2024-01-06T17:29:57;0.57;;;0.57;;
19645;SDS011;9971;52.446;13.452;2024-01-06T17:35:00;0.72;;;0.72;;
19645;SDS011;9971;52.446;13.452;2024-01-06T17:40:02;0.55;;;0.55;;
19645;SDS011;9971;52.446;13.452;2024-01-06T17:45:05;0.50;;;0.50;;
19645;SDS011;9971;52.446;13.452;2024-01-06T17:50:07;0.60;;;0.60;;
19645;SDS011;9971;52.446;13.452;2024-01-06T17:55:10;0.62;;;0.62;;
19645;SDS011;9971;52.446;13.452;2024-01-06T18:00:12;0.90;;;0.70;;
19645;SDS011;9971;52.446;13.452;2024-01-06T18:05:15;0.57;;;0.57;;
19645;SDS011;9971;52.446;13.452;2024-01-06T18:10:17;1.03;;;1.03;;
19645;SDS011;9971;52.446;13.452;2024-01-06T18:15:20;0.57;;;0.57;;
19645;SDS011;9971;52.446;13.452;2024-01-06T18:20:22;0.50;;;0.50;;
19645;SDS011;9971;52.446;13.452;2024-01-06T18:25:25;0.60;;;0.60;;
19645;SDS011;9971;52.446;13.452;2024-01-06T18:30:27;0.45;;;0.45;;
19645;SDS011;9971;52.446;13.452;2024-01-06T18:35:29;0.70;;;0.70;;
19645;SDS011;9971;52.446;13.452;2024-01-06T18:40:32;0.72;;;0.72;;
19645;SDS011;9971;52.446;13.452;2024-01-06T18:45:34;1.00;;;0.95;;
19645;SDS011;9971;52.446;13.452;2024-01-06T18:50:36;0.42;;;0.42;;
19645;SDS011;9971;52.446;13.452;2024-01-06T18:55:39;0.72;;;0.72;;
19645;SDS011;9971;52.446;13.452;2024-01-06T19:00:41;2.90;;;1.00;;
19645;SDS011;9971;52.446;13.452;2024-01-06T19:05:43;0.68;;;0.68;;
19645;SDS011;9971;52.446;13.452;2024-01-06T19:10:46;1.07;;;0.60;;
19645;SDS011;9971;52.446;13.452;2024-01-06T19:15:49;0.57;;;0.57;;
19645;SDS011;9971;52.446;13.452;2024-01-06T19:20:51;0.57;;;0.57;;
19645;SDS011;9971;52.446;13.452;2024-01-06T19:25:53;0.30;;;0.30;;
19645;SDS011;9971;52.446;13.452;2024-01-06T19:30:56;0.75;;;0.75;;
19645;SDS011;9971;52.446;13.452;2024-01-06T19:35:58;0.80;;;0.80;;
19645;SDS011;9971;52.446;13.452;2024-01-06T19:41:01;0.40;;;0.40;;
19645;SDS011;9971;52.446;13.452;2024-01-06T19:46:06;0.72;;;0.72;;
19645;SDS011;9971;52.446;13.452;2024-01-06T19:51:05;0.70;;;0.70;;
19645;SDS011;9971;52.446;13.452;2024-01-06T19:56:11;1.25;;;1.15;;
19645;SDS011;9971;52.446;13.452;2024-01-06T20:01:10;0.60;;;0.60;;
19645;SDS011;9971;52.446;13.452;2024-01-06T20:06:13;0.65;;;0.57;;
19645;SDS011;9971;52.446;13.452;2024-01-06T20:11:14;0.50;;;0.50;;
19645;SDS011;9971;52.446;13.452;2024-01-06T20:16:17;0.40;;;0.40;;
19645;SDS011;9971;52.446;13.452;2024-01-06T20:21:19;0.73;;;0.73;;
19645;SDS011;9971;52.446;13.452;2024-01-06T20:26:21;0.57;;;0.55;;
19645;SDS011;9971;52.446;13.452;2024-01-06T20:31:24;0.55;;;0.55;;
19645;SDS011;9971;52.446;13.452;2024-01-06T20:36:26;0.70;;;0.70;;
19645;SDS011;9971;52.446;13.452;2024-01-06T20:41:28;0.47;;;0.47;;
19645;SDS011;9971;52.446;13.452;2024-01-06T20:46:31;0.75;;;0.70;;
19645;SDS011;9971;52.446;13.452;2024-01-06T20:51:33;0.57;;;0.57;;
19645;SDS011;9971;52.446;13.452;2024-01-06T20:56:35;0.47;;;0.47;;
19645;SDS011;9971;52.446;13.452;2024-01-06T21:01:37;0.57;;;0.57;;
19645;SDS011;9971;52.446;13.452;2024-01-06T21:06:39;0.60;;;0.60;;
19645;SDS011;9971;52.446;13.452;2024-01-06T21:11:42;0.40;;;0.40;;
19645;SDS011;9971;52.446;13.452;2024-01-06T21:16:44;0.40;;;0.40;;
19645;SDS011;9971;52.446;13.452;2024-01-06T21:21:47;0.35;;;0.35;;
19645;SDS011;9971;52.446;13.452;2024-01-06T21:26:49;0.33;;;0.33;;
19645;SDS011;9971;52.446;13.452;2024-01-06T21:31:51;0.40;;;0.40;;
19645;SDS011;9971;52.446;13.452;2024-01-06T21:36:53;0.47;;;0.47;;
19645;SDS011;9971;52.446;13.452;2024-01-06T21:41:56;0.20;;;0.20;;
19645;SDS011;9971;52.446;13.452;2024-01-06T21:46:59;0.60;;;0.60;;
19645;SDS011;9971;52.446;13.452;2024-01-06T21:52:01;0.30;;;0.30;;
19645;SDS011;9971;52.446;13.452;2024-01-06T21:57:04;0.50;;;0.50;;
19645;SDS011;9971;52.446;13.452;2024-01-06T22:02:07;0.23;;;0.23;;
19645;SDS011;9971;52.446;13.452;2024-01-06T22:07:09;0.60;;;0.60;;
19645;SDS011;9971;52.446;13.452;2024-01-06T22:12:11;0.62;;;0.62;;
19645;SDS011;9971;52.446;13.452;2024-01-06T22:17:14;0.30;;;0.30;;
19645;SDS011;9971;52.446;13.452;2024-01-06T22:22:17;0.40;;;0.40;;
19645;SDS011;9971;52.446;13.452;2024-01-06T22:27:19;0.40;;;0.40;;
19645;SDS011;9971;52.446;13.452;2024-01-06T22:32:21;0.20;;;0.20;;
19645;SDS011;9971;52.446;13.452;2024-01-06T22:37:24;0.50;;;0.47;;
19645;SDS011;9971;52.446;13.452;2024-01-06T22:42:26;0.53;;;0.53;;
19645;SDS011;9971;52.446;13.452;2024-01-06T22:47:28;0.40;;;0.40;;
19645;SDS011;9971;52.446;13.452;2024-01-06T22:52:30;0.20;;;0.20;;
19645;SDS011;9971;52.446;13.452;2024-01-06T22:57:33;0.30;;;0.30;;
19645;SDS011;9971;52.446;13.452;2024-01-06T23:02:35;0.27;;;0.27;;
19645;SDS011;9971;52.446;13.452;2024-01-06T23:07:38;0.33;;;0.33;;
19645;SDS011;9971;52.446;13.452;2024-01-06T23:12:40;0.20;;;0.20;;
19645;SDS011;9971;52.446;13.452;2024-01-06T23:17:43;0.40;;;0.40;;
19645;SDS011;9971;52.446;13.452;2024-01-06T23:22:45;0.33;;;0.33;;
19645;SDS011;9971;52.446;13.452;2024-01-06T23:27:48;0.45;;;0.45;;
19645;SDS011;9971;52.446;13.452;2024-01-06T23:32:50;0.35;;;0.35;;
19645;SDS011;9971;52.446;13.452;2024-01-06T23:37:52;0.13;;;0.13;;
19645;SDS011;9971;52.446;13.452;2024-01-06T23:42:55;0.30;;;0.30;;
19645;SDS011;9971;52.446;13.452;2024-01-06T23:47:58;0.28;;;0.28;;
19645;SDS011;9971;52.446;13.452;2024-01-06T23:53:00;0.50;;;0.50;;
19645;SDS011;9971;52.446;13.452;2024-01-06T23:58:02;0.60;;;0.60;;
